createdAt,value
2023-02-19T00:01:22.002Z,2.17
2023-02-19T00:03:50.639Z,2.65
2023-02-19T00:06:17.448Z,1.50
2023-02-19T00:08:44.016Z,1.63
2023-02-19T00:11:14.611Z,1.52
2023-02-19T00:13:44.982Z,2.13
2023-02-19T00:16:14.181Z,1.48
2023-02-19T00:18:41.200Z,1.50
2023-02-19T00:21:08.154Z,1.85
2023-02-19T00:23:35.037Z,1.52
2023-02-19T00:26:17.261Z,1.92
2023-02-19T00:31:33.183Z,1.80
2023-02-19T00:34:01.643Z,1.60
2023-02-19T00:36:28.501Z,1.83
2023-02-19T00:38:55.307Z,1.95
2023-02-19T00:41:22.908Z,1.70
2023-02-19T00:43:53.063Z,1.95
2023-02-19T00:46:41.372Z,1.70
2023-02-19T00:49:08.586Z,1.85
2023-02-19T00:51:37.244Z,1.80
2023-02-19T00:54:04.468Z,1.70
2023-02-19T00:56:31.141Z,1.70
2023-02-19T00:58:57.922Z,1.63
2023-02-19T01:01:24.596Z,2.03
2023-02-19T01:03:51.294Z,1.40
2023-02-19T01:06:18.549Z,1.20
2023-02-19T01:08:45.471Z,1.65
2023-02-19T01:11:12.872Z,1.58
2023-02-19T01:13:39.967Z,1.45
2023-02-19T01:16:19.558Z,1.70
2023-02-19T01:18:46.402Z,1.75
2023-02-19T01:21:14.567Z,1.92
2023-02-19T01:23:41.259Z,1.45
2023-02-19T01:26:09.023Z,1.33
2023-02-19T01:28:36.117Z,1.63
2023-02-19T01:31:04.421Z,1.73
2023-02-19T01:33:31.265Z,1.10
2023-02-19T01:35:58.056Z,1.58
2023-02-19T01:38:24.746Z,1.90
2023-02-19T01:40:59.530Z,1.42
2023-02-19T01:43:26.413Z,1.48
2023-02-19T01:45:53.023Z,1.40
2023-02-19T01:48:37.074Z,1.40
2023-02-19T01:51:07.005Z,1.40
2023-02-19T01:53:36.492Z,1.65
2023-02-19T01:56:03.219Z,1.77
2023-02-19T01:58:31.991Z,1.52
2023-02-19T02:00:59.261Z,1.58
2023-02-19T02:03:25.891Z,1.73
2023-02-19T02:05:57.054Z,1.40
2023-02-19T02:08:43.932Z,1.42
2023-02-19T02:11:10.881Z,1.67
2023-02-19T02:13:37.681Z,1.92
2023-02-19T02:16:28.894Z,2.08
2023-02-19T02:19:24.920Z,2.00
2023-02-19T02:22:08.080Z,1.90
2023-02-19T02:27:40.725Z,2.55
2023-02-19T02:33:13.598Z,3.05
2023-02-19T02:36:03.687Z,2.67
2023-02-19T02:38:30.990Z,2.38
2023-02-19T02:40:57.677Z,3.03
2023-02-19T02:43:24.623Z,2.40
2023-02-19T02:45:51.339Z,2.00
2023-02-19T02:48:39.439Z,2.40
2023-02-19T02:51:19.333Z,2.67
2023-02-19T02:54:28.623Z,2.80
2023-02-19T02:56:55.259Z,2.53
2023-02-19T02:59:24.024Z,2.30
2023-02-19T03:02:14.901Z,2.22
2023-02-19T03:05:22.392Z,2.65
2023-02-19T03:08:17.041Z,2.30
2023-02-19T03:10:49.104Z,3.03
2023-02-19T03:13:40.336Z,2.70
2023-02-19T03:16:30.505Z,2.50
2023-02-19T03:19:17.385Z,2.80
2023-02-19T03:21:44.091Z,3.35
2023-02-19T03:24:31.374Z,2.78
2023-02-19T03:26:59.202Z,3.15
2023-02-19T03:29:28.834Z,2.80
2023-02-19T03:31:58.688Z,2.78
2023-02-19T03:34:28.380Z,3.40
2023-02-19T03:37:00.945Z,3.33
2023-02-19T03:39:27.591Z,3.15
2023-02-19T03:41:59.010Z,3.78
2023-02-19T03:44:35.836Z,2.88
2023-02-19T03:47:05.222Z,3.58
2023-02-19T03:49:49.027Z,3.20
2023-02-19T03:52:20.907Z,2.80
2023-02-19T03:54:57.873Z,2.83
2023-02-19T03:57:36.348Z,3.25
2023-02-19T04:00:10.029Z,3.03
2023-02-19T04:02:41.634Z,3.85
2023-02-19T04:05:14.067Z,2.80
2023-02-19T04:10:09.134Z,3.15
2023-02-19T04:12:37.490Z,4.13
2023-02-19T04:15:07.060Z,2.58
2023-02-19T04:17:37.042Z,2.60
2023-02-19T04:20:05.481Z,2.40
2023-02-19T04:22:32.104Z,2.63
2023-02-19T04:24:58.915Z,3.25
2023-02-19T04:27:25.650Z,3.10
2023-02-19T04:29:52.503Z,3.47
2023-02-19T04:32:19.167Z,2.20
2023-02-19T04:34:45.766Z,2.75
2023-02-19T04:37:12.399Z,2.55
2023-02-19T04:39:39.029Z,2.55
2023-02-19T04:42:05.686Z,2.40
2023-02-19T04:44:33.439Z,2.78
2023-02-19T04:47:00.559Z,2.40
2023-02-19T04:49:27.189Z,2.22
2023-02-19T04:51:53.949Z,2.35
2023-02-19T04:54:20.617Z,2.50
2023-02-19T04:56:47.374Z,2.33
2023-02-19T04:59:13.961Z,2.55
2023-02-19T05:01:40.631Z,2.13
2023-02-19T05:04:07.272Z,2.65
2023-02-19T05:06:33.943Z,2.30
2023-02-19T05:09:00.548Z,2.50
2023-02-19T05:11:27.261Z,2.47
2023-02-19T05:13:55.468Z,2.30
2023-02-19T05:16:22.343Z,2.13
2023-02-19T05:18:49.008Z,2.20
2023-02-19T05:21:15.942Z,2.30
2023-02-19T05:23:42.664Z,2.50
2023-02-19T05:26:12.216Z,2.13
2023-02-19T05:28:38.810Z,2.33
2023-02-19T05:31:07.695Z,1.75
2023-02-19T05:33:34.809Z,1.98
2023-02-19T05:36:05.468Z,2.80
2023-02-19T05:38:32.087Z,2.72
2023-02-19T05:41:08.605Z,2.25
2023-02-19T05:43:35.584Z,2.03
2023-02-19T05:46:02.272Z,2.17
2023-02-19T05:48:28.931Z,1.85
2023-02-19T05:50:59.648Z,2.72
2023-02-19T05:53:26.255Z,2.10
2023-02-19T05:55:52.842Z,1.35
2023-02-19T05:58:19.470Z,1.75
2023-02-19T06:00:46.038Z,1.88
2023-02-19T06:03:12.627Z,1.92
2023-02-19T06:05:39.261Z,2.22
2023-02-19T06:08:05.896Z,1.70
2023-02-19T06:10:32.586Z,1.70
2023-02-19T06:12:59.286Z,2.08
2023-02-19T06:15:25.914Z,2.25
2023-02-19T06:17:52.540Z,2.17
2023-02-19T06:20:19.223Z,2.08
2023-02-19T06:22:45.831Z,1.85
2023-02-19T06:25:12.725Z,2.22
2023-02-19T06:27:39.613Z,1.83
2023-02-19T06:30:06.767Z,2.42
2023-02-19T06:32:33.546Z,1.98
2023-02-19T06:35:00.198Z,2.05
2023-02-19T06:37:26.850Z,1.92
2023-02-19T06:39:53.525Z,1.92
2023-02-19T06:42:20.186Z,2.00
2023-02-19T06:44:46.825Z,2.42
2023-02-19T06:47:13.537Z,1.98
2023-02-19T06:49:40.477Z,2.10
2023-02-19T06:52:07.434Z,2.15
2023-02-19T06:54:34.036Z,1.95
2023-02-19T06:57:00.728Z,1.90
2023-02-19T06:59:27.568Z,1.83
2023-02-19T07:01:54.209Z,2.10
2023-02-19T07:04:20.986Z,1.92
2023-02-19T07:06:47.807Z,1.77
2023-02-19T07:09:14.556Z,2.03
2023-02-19T07:11:41.251Z,2.13
2023-02-19T07:14:08.874Z,2.25
2023-02-19T07:16:36.130Z,2.13
2023-02-19T07:19:02.966Z,2.28
2023-02-19T07:21:30.032Z,2.63
2023-02-19T07:23:57.667Z,2.10
2023-02-19T07:26:24.869Z,2.80
2023-02-19T07:28:52.073Z,2.45
2023-02-19T07:31:20.243Z,2.55
2023-02-19T07:33:47.175Z,2.28
2023-02-19T07:36:14.380Z,2.95
2023-02-19T07:38:41.186Z,3.25
2023-02-19T07:41:07.999Z,2.28
2023-02-19T07:43:36.362Z,2.95
2023-02-19T07:46:07.417Z,2.40
2023-02-19T07:48:35.351Z,2.70
2023-02-19T07:51:02.555Z,2.55
2023-02-19T07:53:29.360Z,2.90
2023-02-19T07:56:03.628Z,2.95
2023-02-19T07:58:30.505Z,2.50
2023-02-19T08:00:57.312Z,2.55
2023-02-19T08:03:24.000Z,2.55
2023-02-19T08:05:51.416Z,2.45
2023-02-19T08:08:18.077Z,2.20
2023-02-19T08:11:04.630Z,2.17
2023-02-19T08:13:31.778Z,2.35
2023-02-19T08:18:41.396Z,2.40
2023-02-19T08:21:08.228Z,2.15
2023-02-19T08:23:35.068Z,2.10
2023-02-19T08:26:02.330Z,2.17
2023-02-19T08:28:29.535Z,2.10
2023-02-19T08:31:02.469Z,2.20
2023-02-19T08:33:29.199Z,2.53
2023-02-19T08:35:56.035Z,3.03
2023-02-19T08:38:22.905Z,2.08
2023-02-19T08:40:49.581Z,1.73
2023-02-19T08:43:16.734Z,2.00
2023-02-19T08:45:44.892Z,1.67
2023-02-19T08:48:11.675Z,1.95
2023-02-19T08:50:38.547Z,1.80
2023-02-19T08:53:06.159Z,2.45
2023-02-19T08:55:33.100Z,2.05
2023-02-19T08:57:59.807Z,2.17
2023-02-19T09:00:27.292Z,2.50
2023-02-19T09:02:53.936Z,2.15
2023-02-19T09:05:20.573Z,2.17
2023-02-19T09:07:47.206Z,2.38
2023-02-19T09:10:13.874Z,2.63
2023-02-19T09:12:45.301Z,2.47
2023-02-19T09:15:11.991Z,2.30
2023-02-19T09:17:38.587Z,2.60
2023-02-19T09:20:05.427Z,2.53
2023-02-19T09:22:32.145Z,2.60
2023-02-19T09:24:58.769Z,2.00
2023-02-19T09:27:25.362Z,1.50
2023-02-19T09:29:52.240Z,1.45
2023-02-19T09:32:19.321Z,1.90
2023-02-19T09:34:46.127Z,2.47
2023-02-19T09:37:12.971Z,2.00
2023-02-19T09:39:39.578Z,1.75
2023-02-19T09:42:24.565Z,1.48
2023-02-19T09:44:53.111Z,1.10
2023-02-19T09:47:21.904Z,1.00
2023-02-19T09:49:51.865Z,0.68
2023-02-19T09:52:36.997Z,0.50
2023-02-19T09:55:13.161Z,0.68
2023-02-19T09:57:39.726Z,0.60
2023-02-19T10:00:23.894Z,0.40
2023-02-19T10:02:54.081Z,0.40
2023-02-19T10:05:20.661Z,0.50
2023-02-19T10:07:49.409Z,0.60
2023-02-19T10:10:21.318Z,0.52
2023-02-19T10:12:50.471Z,0.80
2023-02-19T10:15:19.200Z,0.50
2023-02-19T10:17:45.850Z,0.30
2023-02-19T10:20:15.963Z,0.40
2023-02-19T10:22:42.632Z,0.60
2023-02-19T10:25:13.782Z,0.52
2023-02-19T10:27:40.461Z,0.70
2023-02-19T10:30:07.589Z,0.73
2023-02-19T10:32:34.416Z,0.73
2023-02-19T10:37:47.287Z,0.77
2023-02-19T10:40:17.985Z,0.60
2023-02-19T10:42:47.773Z,0.80
2023-02-19T10:45:19.094Z,0.60
2023-02-19T10:47:46.962Z,0.40
2023-02-19T10:50:28.284Z,0.65
2023-02-19T10:52:56.111Z,0.73
2023-02-19T10:58:24.275Z,0.70
2023-02-19T11:01:15.053Z,1.25
2023-02-19T11:03:42.270Z,0.45
2023-02-19T11:06:10.195Z,0.50
2023-02-19T11:14:26.476Z,0.47
2023-02-19T11:16:56.400Z,0.65
2023-02-19T11:19:24.894Z,0.40
2023-02-19T11:21:51.738Z,0.30
2023-02-19T11:24:25.065Z,0.40
2023-02-19T11:26:51.638Z,0.70
2023-02-19T11:29:20.285Z,0.43
2023-02-19T11:31:47.104Z,0.50
2023-02-19T11:34:23.040Z,0.38
2023-02-19T11:37:14.600Z,0.38
2023-02-19T11:39:42.723Z,0.43
2023-02-19T11:42:31.308Z,0.50
2023-02-19T11:45:37.822Z,0.32
2023-02-19T11:48:19.563Z,0.25
2023-02-19T11:51:02.207Z,0.50
2023-02-19T11:53:31.975Z,0.43
2023-02-19T11:59:00.657Z,0.82
2023-02-19T12:01:51.023Z,0.47
2023-02-19T12:04:55.816Z,0.50
2023-02-19T12:11:08.771Z,0.60
2023-02-19T12:14:02.083Z,0.80
2023-02-19T12:19:44.914Z,0.70
2023-02-19T12:22:30.917Z,0.70
2023-02-19T12:25:16.455Z,0.63
2023-02-19T12:28:09.782Z,0.73
2023-02-19T12:30:47.131Z,1.05
2023-02-19T12:33:27.749Z,0.80
2023-02-19T12:36:34.243Z,0.88
2023-02-19T12:39:25.572Z,0.73
2023-02-19T12:42:30.780Z,0.60
2023-02-19T12:44:59.833Z,1.55
2023-02-19T12:47:29.972Z,0.63
2023-02-19T12:50:19.492Z,0.68
2023-02-19T12:52:48.162Z,0.52
2023-02-19T12:55:23.283Z,0.73
2023-02-19T12:57:50.449Z,0.70
2023-02-19T13:00:29.741Z,0.82
2023-02-19T13:03:11.148Z,0.77
2023-02-19T13:06:00.903Z,0.52
2023-02-19T13:09:05.303Z,0.68
2023-02-19T13:11:36.874Z,1.05
2023-02-19T13:14:15.395Z,1.25
2023-02-19T13:16:44.396Z,0.40
2023-02-19T13:19:14.933Z,0.65
2023-02-19T13:22:01.603Z,1.25
2023-02-19T13:24:31.039Z,0.90
2023-02-19T13:30:01.099Z,1.00
2023-02-19T13:32:44.691Z,1.45
2023-02-19T13:38:07.622Z,0.60
2023-02-19T13:40:36.038Z,0.60
2023-02-19T13:43:07.676Z,0.73
2023-02-19T13:45:39.497Z,0.40
2023-02-19T13:48:30.914Z,0.50
2023-02-19T13:53:58.638Z,0.82
2023-02-19T13:56:35.978Z,0.63
2023-02-19T13:59:14.112Z,0.43
2023-02-19T14:02:01.117Z,1.05
2023-02-19T14:07:22.221Z,0.60
2023-02-19T14:09:48.856Z,0.65
2023-02-19T14:12:19.022Z,0.40
2023-02-19T14:14:49.864Z,0.55
2023-02-19T14:25:33.637Z,0.80
2023-02-19T14:28:18.871Z,1.17
2023-02-19T14:33:28.161Z,0.88
2023-02-19T14:36:02.541Z,1.27
2023-02-19T14:38:33.022Z,0.95
2023-02-19T14:40:59.599Z,0.70
2023-02-19T14:43:26.240Z,0.50
2023-02-19T14:45:57.832Z,0.82
2023-02-19T14:48:35.400Z,0.60
2023-02-19T14:51:06.112Z,0.90
2023-02-19T14:53:33.415Z,1.33
2023-02-19T14:56:00.115Z,0.73
2023-02-19T14:58:30.787Z,0.80
2023-02-19T15:00:57.690Z,0.80
2023-02-19T15:03:26.210Z,1.80
2023-02-19T15:06:01.288Z,1.27
2023-02-19T15:08:34.776Z,1.50
2023-02-19T15:11:02.205Z,0.98
2023-02-19T15:13:29.763Z,0.93
2023-02-19T15:15:56.738Z,1.60
2023-02-19T15:18:25.093Z,1.02
2023-02-19T15:20:52.656Z,1.15
2023-02-19T15:23:22.166Z,1.00
2023-02-19T15:25:49.415Z,1.38
2023-02-19T15:28:32.498Z,1.13
2023-02-19T15:33:36.733Z,1.15
2023-02-19T15:36:05.770Z,1.25
2023-02-19T15:38:33.369Z,1.40
2023-02-19T15:41:00.208Z,1.52
2023-02-19T15:43:44.850Z,0.98
2023-02-19T15:46:15.595Z,1.55
2023-02-19T15:48:45.680Z,1.10
2023-02-19T15:51:17.169Z,1.00
2023-02-19T15:53:47.327Z,1.02
2023-02-19T15:56:29.425Z,1.27
2023-02-19T15:59:06.882Z,1.23
2023-02-19T16:01:36.250Z,1.20
2023-02-19T16:04:03.320Z,0.70
2023-02-19T16:06:30.507Z,1.40
2023-02-19T16:09:03.664Z,1.63
2023-02-19T16:11:51.350Z,0.93
2023-02-19T16:14:24.188Z,1.50
2023-02-19T16:16:53.737Z,1.30
2023-02-19T16:19:22.044Z,1.10
2023-02-19T16:21:48.651Z,1.23
2023-02-19T16:24:31.721Z,1.05
2023-02-19T16:26:58.628Z,0.98
2023-02-19T16:29:28.529Z,1.23
2023-02-19T16:31:58.771Z,1.45
2023-02-19T16:34:31.273Z,1.52
2023-02-19T16:36:57.936Z,1.30
2023-02-19T16:39:24.573Z,1.63
2023-02-19T16:44:35.639Z,1.08
2023-02-19T16:47:07.102Z,4.03
2023-02-19T16:49:33.895Z,4.05
2023-02-19T16:52:02.136Z,1.70
2023-02-19T16:54:30.522Z,3.65
2023-02-19T16:56:57.300Z,2.25
2023-02-19T16:59:24.068Z,1.50
2023-02-19T17:01:50.764Z,2.17
2023-02-19T17:04:17.370Z,3.10
2023-02-19T17:06:45.517Z,1.75
2023-02-19T17:09:12.166Z,1.55
2023-02-19T17:11:39.550Z,2.10
2023-02-19T17:14:06.690Z,1.73
2023-02-19T17:16:39.723Z,1.25
2023-02-19T17:19:12.393Z,2.08
2023-02-19T17:21:39.267Z,1.23
2023-02-19T17:24:06.197Z,1.90
2023-02-19T17:26:33.117Z,1.52
2023-02-19T17:29:00.744Z,2.03
2023-02-19T17:31:27.902Z,1.45
2023-02-19T17:33:54.583Z,1.30
2023-02-19T17:36:23.226Z,1.17
2023-02-19T17:38:49.890Z,1.42
2023-02-19T17:41:16.541Z,1.85
2023-02-19T17:43:43.375Z,1.80
2023-02-19T17:46:15.813Z,1.20
2023-02-19T17:48:42.463Z,1.90
2023-02-19T17:51:09.595Z,1.27
2023-02-19T17:53:36.532Z,1.33
2023-02-19T17:56:03.263Z,1.40
2023-02-19T17:58:29.880Z,1.25
2023-02-19T18:00:56.681Z,1.20
2023-02-19T18:03:23.314Z,1.40
2023-02-19T18:05:49.906Z,1.38
2023-02-19T18:08:16.561Z,1.50
2023-02-19T18:10:43.215Z,1.42
2023-02-19T18:13:10.456Z,1.90
2023-02-19T18:15:37.087Z,1.75
2023-02-19T18:18:04.892Z,2.38
2023-02-19T18:20:31.793Z,1.73
2023-02-19T18:22:58.377Z,2.15
2023-02-19T18:25:25.189Z,1.83
2023-02-19T18:27:52.057Z,1.60
2023-02-19T18:30:19.501Z,1.75
2023-02-19T18:32:48.544Z,1.10
2023-02-19T18:35:17.430Z,1.50
2023-02-19T18:37:44.138Z,1.85
2023-02-19T18:40:11.304Z,2.17
2023-02-19T18:42:37.942Z,2.50
2023-02-19T18:45:04.679Z,2.22
2023-02-19T18:47:31.237Z,2.50
2023-02-19T18:49:58.453Z,1.60
2023-02-19T18:52:25.738Z,2.15
2023-02-19T18:54:53.422Z,1.90
2023-02-19T18:57:20.595Z,1.63
2023-02-19T18:59:47.396Z,2.30
2023-02-19T19:02:14.821Z,1.50
2023-02-19T19:04:41.675Z,1.80
2023-02-19T19:07:09.191Z,1.85
2023-02-19T19:09:36.080Z,2.28
2023-02-19T19:12:03.062Z,1.83
2023-02-19T19:14:29.670Z,2.70
2023-02-19T19:16:56.275Z,2.22
2023-02-19T19:19:22.935Z,2.22
2023-02-19T19:21:53.458Z,2.53
2023-02-19T19:24:20.657Z,2.10
2023-02-19T19:26:48.121Z,2.00
2023-02-19T19:29:15.991Z,1.60
2023-02-19T19:31:42.672Z,2.05
2023-02-19T19:34:09.816Z,1.50
2023-02-19T19:36:36.486Z,2.28
2023-02-19T19:39:03.906Z,11.27
2023-02-19T19:41:30.552Z,14.95
2023-02-19T19:43:57.270Z,4.35
2023-02-19T19:46:23.984Z,4.72
2023-02-19T19:48:52.698Z,3.25
2023-02-19T19:51:19.309Z,4.28
2023-02-19T19:53:47.942Z,17.63
2023-02-19T19:56:15.019Z,6.75
2023-02-19T19:58:41.680Z,3.47
2023-02-19T20:01:08.372Z,3.90
2023-02-19T20:03:35.100Z,3.65
2023-02-19T20:06:01.717Z,3.60
2023-02-19T20:08:28.307Z,7.68
2023-02-19T20:10:54.924Z,7.65
2023-02-19T20:13:24.346Z,3.40
2023-02-19T20:15:51.558Z,4.00
2023-02-19T20:18:18.294Z,5.50
2023-02-19T20:20:44.917Z,4.20
2023-02-19T20:23:11.538Z,4.32
2023-02-19T20:25:38.151Z,2.90
2023-02-19T20:28:04.866Z,3.08
2023-02-19T20:30:31.433Z,2.35
2023-02-19T20:32:58.166Z,2.50
2023-02-19T20:35:28.416Z,3.00
2023-02-19T20:37:55.544Z,3.17
2023-02-19T20:40:27.203Z,3.28
2023-02-19T20:42:54.216Z,3.83
2023-02-19T20:45:21.338Z,4.03
2023-02-19T20:47:48.170Z,7.78
2023-02-19T20:50:17.121Z,6.57
2023-02-19T20:52:43.928Z,8.82
2023-02-19T20:55:10.630Z,3.75
2023-02-19T20:57:37.686Z,3.50
2023-02-19T21:00:05.751Z,3.67
2023-02-19T21:02:32.337Z,3.80
2023-02-19T21:04:59.661Z,3.80
2023-02-19T21:07:26.460Z,3.90
2023-02-19T21:09:53.260Z,3.67
2023-02-19T21:12:20.827Z,4.30
2023-02-19T21:14:47.696Z,3.60
2023-02-19T21:17:14.406Z,3.80
2023-02-19T21:19:41.089Z,4.05
2023-02-19T21:22:07.800Z,4.28
2023-02-19T21:24:34.477Z,4.43
2023-02-19T21:27:01.173Z,4.13
2023-02-19T21:29:27.852Z,3.55
2023-02-19T21:31:55.864Z,3.72
2023-02-19T21:34:24.734Z,3.13
2023-02-19T21:36:51.411Z,3.88
2023-02-19T21:39:19.559Z,4.82
2023-02-19T21:41:46.359Z,4.25
2023-02-19T21:44:13.111Z,3.90
2023-02-19T21:46:39.691Z,3.72
2023-02-19T21:49:06.483Z,3.67
2023-02-19T21:51:34.638Z,3.53
2023-02-19T21:54:01.290Z,3.67
2023-02-19T21:56:30.229Z,3.33
2023-02-19T21:58:56.909Z,4.70
2023-02-19T22:01:26.411Z,3.80
2023-02-19T22:03:53.079Z,3.72
2023-02-19T22:06:22.517Z,4.32
2023-02-19T22:08:49.182Z,4.15
2023-02-19T22:11:15.845Z,4.18
2023-02-19T22:13:42.467Z,3.72
2023-02-19T22:16:09.285Z,4.40
2023-02-19T22:18:36.007Z,4.13
2023-02-19T22:21:04.323Z,4.05
2023-02-19T22:23:31.216Z,4.43
2023-02-19T22:25:57.968Z,3.65
2023-02-19T22:28:24.544Z,4.30
2023-02-19T22:30:51.169Z,4.50
2023-02-19T22:33:17.990Z,3.90
2023-02-19T22:35:44.605Z,4.20
2023-02-19T22:38:11.314Z,4.20
2023-02-19T22:40:37.900Z,3.90
2023-02-19T22:43:04.535Z,4.30
2023-02-19T22:45:31.204Z,3.97
2023-02-19T22:47:57.929Z,3.72
2023-02-19T22:50:26.360Z,4.18
2023-02-19T22:52:55.033Z,3.80
2023-02-19T22:55:21.803Z,3.78
2023-02-19T22:57:48.453Z,4.00
2023-02-19T23:00:18.179Z,3.55
2023-02-19T23:02:46.746Z,3.78
2023-02-19T23:05:13.341Z,3.95
2023-02-19T23:07:43.714Z,3.47
2023-02-19T23:10:11.466Z,4.80
2023-02-19T23:12:38.421Z,5.57
2023-02-19T23:15:05.808Z,3.65
2023-02-19T23:17:32.628Z,3.67
2023-02-19T23:19:59.241Z,3.70
2023-02-19T23:22:25.834Z,3.88
2023-02-19T23:24:52.430Z,4.07
2023-02-19T23:27:19.020Z,4.20
2023-02-19T23:29:45.662Z,4.00
2023-02-19T23:32:12.441Z,4.88
2023-02-19T23:34:39.108Z,3.70
2023-02-19T23:37:06.583Z,4.45
2023-02-19T23:39:33.166Z,4.13
2023-02-19T23:41:59.750Z,3.88
2023-02-19T23:44:26.498Z,4.35
2023-02-19T23:46:53.180Z,5.15
2023-02-19T23:49:19.962Z,4.90
2023-02-19T23:51:46.638Z,4.10
2023-02-19T23:54:13.297Z,4.07
2023-02-19T23:56:39.963Z,4.05
2023-02-19T23:59:06.719Z,4.25
